createdAt,value
2023-03-26T00:00:12.426Z,4.57
2023-03-26T00:03:18.544Z,3.20
2023-03-26T00:06:23.048Z,4.60
2023-03-26T00:09:26.699Z,4.20
2023-03-26T00:12:29.273Z,3.28
2023-03-26T00:15:32.302Z,3.10
2023-03-26T00:18:36.199Z,2.40
2023-03-26T00:21:38.888Z,3.58
2023-03-26T00:24:45.797Z,2.63
2023-03-26T00:27:49.512Z,2.40
2023-03-26T00:30:58.918Z,4.70
2023-03-26T00:34:05.573Z,3.03
2023-03-26T00:37:09.224Z,3.40
2023-03-26T00:40:12.494Z,4.05
2023-03-26T00:43:19.622Z,4.20
2023-03-26T00:46:22.189Z,3.30
2023-03-26T00:49:30.633Z,6.40
2023-03-26T00:52:33.236Z,3.22
2023-03-26T00:55:36.096Z,4.65
2023-03-26T00:58:39.106Z,4.07
2023-03-26T01:01:41.695Z,3.42
2023-03-26T01:04:48.470Z,2.83
2023-03-26T01:07:51.581Z,3.17
2023-03-26T01:11:02.605Z,2.83
2023-03-26T01:14:09.589Z,1.88
2023-03-26T01:17:13.387Z,2.88
2023-03-26T01:20:26.631Z,2.28
2023-03-26T01:23:38.417Z,2.13
2023-03-26T01:27:17.980Z,2.85
2023-03-26T01:30:25.813Z,2.08
2023-03-26T01:33:36.689Z,2.15
2023-03-26T01:36:47.355Z,3.33
2023-03-26T01:39:56.994Z,1.98
2023-03-26T01:43:10.015Z,3.42
2023-03-26T01:46:15.023Z,4.35
2023-03-26T01:49:19.150Z,3.58
2023-03-26T01:52:25.226Z,2.15
2023-03-26T01:55:37.285Z,2.85
2023-03-26T01:58:55.968Z,2.15
2023-03-26T02:02:05.819Z,3.50
2023-03-26T02:05:17.014Z,2.25
2023-03-26T02:08:24.762Z,3.75
2023-03-26T02:11:35.500Z,2.53
2023-03-26T02:14:40.112Z,3.00
2023-03-26T02:17:42.651Z,2.63
2023-03-26T02:20:45.368Z,1.70
2023-03-26T02:23:50.758Z,3.22
2023-03-26T02:26:53.361Z,2.15
2023-03-26T02:29:57.347Z,3.17
2023-03-26T02:33:00.103Z,3.35
2023-03-26T02:36:02.848Z,2.83
2023-03-26T02:39:05.766Z,2.53
2023-03-26T02:42:08.411Z,2.22
2023-03-26T02:45:12.241Z,2.65
2023-03-26T02:48:16.171Z,2.45
2023-03-26T02:51:21.780Z,3.58
2023-03-26T02:54:24.492Z,2.60
2023-03-26T02:57:26.965Z,2.40
2023-03-26T03:00:31.139Z,2.88
2023-03-26T03:03:34.605Z,2.03
2023-03-26T03:09:40.931Z,1.58
2023-03-26T03:12:43.961Z,3.60
2023-03-26T03:15:48.082Z,2.28
2023-03-26T03:18:54.650Z,2.05
2023-03-26T03:21:57.372Z,2.33
2023-03-26T03:24:59.933Z,1.70
2023-03-26T03:28:02.604Z,2.03
2023-03-26T03:31:09.151Z,1.70
2023-03-26T03:34:11.679Z,2.63
2023-03-26T03:37:14.367Z,2.35
2023-03-26T03:40:17.067Z,4.38
2023-03-26T03:43:19.556Z,3.00
2023-03-26T03:46:23.477Z,1.33
2023-03-26T03:49:25.940Z,3.03
2023-03-26T03:52:29.280Z,3.90
2023-03-26T03:55:31.800Z,3.53
2023-03-26T03:58:34.696Z,4.00
2023-03-26T04:01:39.058Z,3.20
2023-03-26T04:04:42.287Z,1.45
2023-03-26T04:07:45.184Z,1.60
2023-03-26T04:10:47.674Z,1.58
2023-03-26T04:13:50.294Z,2.80
2023-03-26T04:16:55.012Z,4.30
2023-03-26T04:19:57.603Z,2.63
2023-03-26T04:23:00.208Z,2.80
2023-03-26T04:26:06.400Z,0.85
2023-03-26T04:29:12.851Z,2.15
2023-03-26T04:32:24.635Z,3.42
2023-03-26T04:35:30.393Z,5.43
2023-03-26T04:38:38.898Z,2.55
2023-03-26T04:41:42.794Z,1.88
2023-03-26T04:44:45.415Z,3.65
2023-03-26T04:47:50.371Z,3.17
2023-03-26T04:50:53.088Z,3.05
2023-03-26T04:53:58.923Z,2.75
2023-03-26T04:57:04.739Z,4.57
2023-03-26T05:00:16.421Z,4.38
2023-03-26T05:03:20.932Z,3.78
2023-03-26T05:06:25.770Z,2.95
2023-03-26T05:09:28.598Z,3.80
2023-03-26T05:12:31.487Z,2.45
2023-03-26T05:15:34.142Z,3.80
2023-03-26T05:18:38.338Z,4.85
2023-03-26T05:21:41.241Z,4.65
2023-03-26T05:24:43.836Z,5.57
2023-03-26T05:27:46.972Z,3.40
2023-03-26T05:30:49.523Z,3.80
2023-03-26T05:33:55.014Z,3.35
2023-03-26T05:36:57.544Z,3.72
2023-03-26T05:40:00.378Z,4.30
2023-03-26T05:43:03.536Z,2.50
2023-03-26T05:46:06.603Z,4.85
2023-03-26T05:49:10.515Z,3.15
2023-03-26T05:52:15.292Z,3.05
2023-03-26T05:55:18.497Z,3.13
2023-03-26T05:58:21.192Z,3.35
2023-03-26T06:01:25.528Z,3.40
2023-03-26T06:04:29.717Z,4.20
2023-03-26T06:07:34.063Z,4.25
2023-03-26T06:10:38.843Z,2.85
2023-03-26T06:13:42.805Z,5.40
2023-03-26T06:16:45.242Z,2.08
2023-03-26T06:19:49.419Z,4.70
2023-03-26T06:22:51.880Z,5.03
2023-03-26T06:25:54.407Z,3.63
2023-03-26T06:28:56.943Z,7.70
2023-03-26T06:32:12.379Z,5.10
2023-03-26T06:35:20.647Z,3.10
2023-03-26T06:38:23.430Z,3.55
2023-03-26T06:41:26.311Z,3.75
2023-03-26T06:44:28.901Z,4.82
2023-03-26T06:47:31.448Z,7.95
2023-03-26T06:50:35.370Z,5.47
2023-03-26T06:53:38.087Z,3.75
2023-03-26T06:56:40.720Z,3.92
2023-03-26T06:59:43.308Z,5.40
2023-03-26T07:02:46.031Z,4.57
2023-03-26T07:05:50.292Z,3.78
2023-03-26T07:08:52.970Z,4.60
2023-03-26T07:11:55.478Z,6.78
2023-03-26T07:15:00.019Z,3.90
2023-03-26T07:18:03.035Z,3.95
2023-03-26T07:21:08.192Z,2.55
2023-03-26T07:24:12.366Z,4.38
2023-03-26T07:27:29.087Z,7.63
2023-03-26T07:30:40.250Z,5.22
2023-03-26T07:33:50.615Z,5.15
2023-03-26T07:36:58.653Z,6.10
2023-03-26T07:40:06.040Z,4.70
2023-03-26T07:43:17.893Z,4.10
2023-03-26T07:46:25.888Z,7.97
2023-03-26T07:49:29.506Z,5.45
2023-03-26T07:52:34.307Z,5.57
2023-03-26T07:55:49.783Z,6.07
2023-03-26T07:59:15.522Z,4.30
2023-03-26T08:02:43.469Z,3.97
2023-03-26T08:05:53.225Z,5.72
2023-03-26T08:09:03.863Z,4.88
2023-03-26T08:12:18.925Z,2.95
2023-03-26T08:15:29.578Z,6.50
2023-03-26T08:18:45.466Z,4.70
2023-03-26T08:21:53.966Z,5.20
2023-03-26T08:25:17.651Z,4.40
2023-03-26T08:28:33.635Z,7.70
2023-03-26T08:31:39.198Z,4.57
2023-03-26T08:34:42.009Z,5.90
2023-03-26T08:37:45.266Z,5.93
2023-03-26T08:41:23.405Z,5.72
2023-03-26T08:45:01.615Z,5.80
2023-03-26T08:48:32.854Z,3.30
2023-03-26T08:52:00.538Z,6.18
2023-03-26T08:55:28.302Z,6.70
2023-03-26T08:59:01.551Z,7.93
2023-03-26T09:02:32.619Z,9.30
2023-03-26T09:06:13.241Z,5.55
2023-03-26T09:09:36.703Z,6.78
2023-03-26T09:13:06.503Z,6.75
2023-03-26T09:16:41.502Z,6.32
2023-03-26T09:23:23.723Z,5.30
2023-03-26T09:26:27.942Z,7.65
2023-03-26T09:30:11.018Z,8.85
2023-03-26T09:33:28.922Z,5.22
2023-03-26T09:36:52.658Z,6.93
2023-03-26T09:40:17.742Z,5.88
2023-03-26T09:43:46.386Z,5.97
2023-03-26T09:47:05.598Z,6.10
2023-03-26T09:50:30.484Z,5.53
2023-03-26T09:54:02.958Z,4.97
2023-03-26T09:57:15.401Z,6.40
2023-03-26T10:00:27.599Z,5.00
2023-03-26T10:03:40.845Z,5.07
2023-03-26T10:06:55.516Z,7.22
2023-03-26T10:10:05.332Z,3.90
2023-03-26T10:16:27.113Z,6.60
2023-03-26T10:19:44.356Z,5.63
2023-03-26T10:23:00.005Z,5.82
2023-03-26T10:26:18.794Z,5.82
2023-03-26T10:29:51.062Z,6.43
2023-03-26T10:33:03.485Z,5.18
2023-03-26T10:36:29.869Z,6.22
2023-03-26T10:39:49.470Z,4.80
2023-03-26T10:43:19.667Z,4.72
2023-03-26T10:46:47.736Z,5.93
2023-03-26T10:50:23.039Z,3.92
2023-03-26T10:53:37.318Z,4.22
2023-03-26T10:56:44.714Z,6.32
2023-03-26T11:57:19.795Z,2.92
2023-03-26T12:00:27.609Z,3.30
2023-03-26T12:03:30.397Z,4.60
2023-03-26T12:06:33.065Z,3.00
2023-03-26T12:09:37.235Z,4.70
2023-03-26T12:12:43.008Z,3.75
2023-03-26T12:15:45.650Z,3.58
2023-03-26T12:18:59.579Z,3.80
2023-03-26T12:22:02.184Z,2.70
2023-03-26T12:25:16.938Z,4.93
2023-03-26T12:28:21.450Z,5.00
2023-03-26T12:31:26.456Z,3.10
2023-03-26T12:34:34.994Z,6.05
2023-03-26T12:37:42.693Z,3.10
2023-03-26T12:40:47.726Z,4.05
2023-03-26T12:44:52.691Z,5.22
2023-03-26T12:47:56.928Z,4.18
2023-03-26T12:50:59.224Z,3.78
2023-03-26T12:54:30.669Z,3.47
2023-03-26T12:57:38.934Z,3.45
2023-03-26T13:00:56.537Z,3.20
2023-03-26T13:04:18.743Z,4.28
2023-03-26T13:07:30.430Z,4.03
2023-03-26T13:10:49.469Z,4.90
2023-03-26T13:14:05.693Z,3.63
2023-03-26T13:17:22.401Z,2.20
2023-03-26T13:20:35.318Z,3.22
2023-03-26T13:23:45.015Z,5.40
2023-03-26T13:26:59.584Z,5.32
2023-03-26T13:30:11.223Z,3.85
2023-03-26T13:33:27.004Z,6.30
2023-03-26T13:36:39.816Z,2.72
2023-03-26T13:39:55.645Z,4.85
2023-03-26T13:43:30.550Z,3.67
2023-03-26T13:46:36.555Z,5.00
2023-03-26T13:49:44.949Z,5.15
2023-03-26T13:52:52.181Z,4.93
2023-03-26T13:55:58.496Z,5.68
2023-03-26T13:59:04.332Z,4.38
2023-03-26T14:02:11.919Z,3.58
2023-03-26T14:05:21.615Z,3.78
2023-03-26T14:11:41.034Z,5.57
2023-03-26T14:14:49.526Z,3.25
2023-03-26T14:17:59.511Z,2.92
2023-03-26T14:21:26.516Z,2.28
2023-03-26T14:24:48.108Z,5.07
2023-03-26T14:28:02.984Z,1.73
2023-03-26T14:31:21.135Z,3.55
2023-03-26T14:34:37.837Z,3.42
2023-03-26T14:38:08.039Z,2.03
2023-03-26T14:41:20.815Z,4.13
2023-03-26T14:44:53.411Z,4.68
2023-03-26T14:48:26.717Z,4.30
2023-03-26T14:51:43.938Z,5.68
2023-03-26T14:54:51.597Z,4.57
2023-03-26T14:58:18.126Z,4.95
2023-03-26T15:01:29.056Z,3.53
2023-03-26T15:04:57.949Z,4.43
2023-03-26T15:08:33.828Z,3.55
2023-03-26T15:11:48.051Z,5.47
2023-03-26T15:15:35.638Z,4.25
2023-03-26T15:22:41.242Z,5.38
2023-03-26T15:26:07.738Z,3.42
2023-03-26T15:29:48.098Z,4.05
2023-03-26T15:33:17.031Z,4.43
2023-03-26T15:37:10.867Z,4.68
2023-03-26T15:44:23.012Z,4.68
2023-03-26T15:47:58.242Z,2.63
2023-03-26T15:51:15.320Z,4.40
2023-03-26T15:54:24.012Z,4.65
2023-03-26T15:57:31.597Z,4.38
2023-03-26T16:00:37.302Z,6.18
2023-03-26T16:03:52.414Z,5.40
2023-03-26T16:07:03.294Z,5.25
2023-03-26T16:10:20.961Z,5.50
2023-03-26T16:13:38.744Z,4.50
2023-03-26T16:16:54.354Z,4.63
2023-03-26T16:20:20.475Z,3.63
2023-03-26T16:23:30.034Z,4.88
2023-03-26T16:26:41.139Z,4.72
2023-03-26T16:30:16.424Z,3.97
2023-03-26T16:33:21.429Z,4.63
2023-03-26T16:36:34.430Z,4.68
2023-03-26T16:39:42.246Z,5.43
2023-03-26T16:42:49.951Z,4.47
2023-03-26T16:45:59.039Z,4.80
2023-03-26T16:49:11.424Z,5.82
2023-03-26T16:52:24.865Z,3.30
2023-03-26T16:55:36.572Z,4.90
2023-03-26T16:58:53.681Z,4.53
2023-03-26T17:02:05.116Z,3.80
2023-03-26T17:05:19.948Z,3.92
2023-03-26T17:08:35.989Z,4.40
2023-03-26T17:11:54.824Z,4.32
2023-03-26T17:15:08.347Z,3.55
2023-03-26T17:18:34.838Z,4.55
2023-03-26T17:21:49.125Z,3.47
2023-03-26T17:24:59.516Z,3.08
2023-03-26T17:28:21.028Z,3.83
2023-03-26T17:31:35.235Z,4.18
2023-03-26T17:34:57.213Z,5.55
2023-03-26T17:37:59.953Z,7.10
2023-03-26T17:41:04.611Z,6.57
2023-03-26T17:44:38.871Z,6.95
2023-03-26T17:47:47.982Z,6.95
2023-03-26T17:50:55.397Z,11.45
2023-03-26T17:53:59.024Z,5.68
2023-03-26T18:00:16.241Z,6.63
2023-03-26T18:03:21.792Z,8.10
2023-03-26T18:06:44.485Z,6.88
2023-03-26T18:10:00.052Z,6.72
2023-03-26T18:13:34.519Z,6.28
2023-03-26T18:16:40.215Z,6.95
2023-03-26T18:19:50.750Z,6.57
2023-03-26T18:22:54.604Z,7.40
2023-03-26T18:25:59.352Z,6.07
2023-03-26T18:29:20.568Z,7.43
2023-03-26T18:32:26.077Z,6.88
2023-03-26T18:35:41.525Z,6.72
2023-03-26T18:38:44.159Z,9.10
2023-03-26T18:41:47.924Z,6.57
2023-03-26T18:44:53.037Z,6.03
2023-03-26T18:47:58.291Z,5.53
2023-03-26T18:51:04.999Z,7.30
2023-03-26T18:54:15.008Z,5.50
2023-03-26T18:57:22.448Z,5.75
2023-03-26T19:00:30.346Z,6.20
2023-03-26T19:03:37.050Z,6.40
2023-03-26T19:06:42.028Z,6.20
2023-03-26T19:09:45.525Z,4.95
2023-03-26T19:16:00.057Z,6.45
2023-03-26T19:19:06.188Z,4.90
2023-03-26T19:22:12.503Z,5.70
2023-03-26T19:25:22.509Z,6.78
2023-03-26T19:28:27.660Z,5.03
2023-03-26T19:31:36.540Z,5.35
2023-03-26T19:34:40.114Z,4.72
2023-03-26T19:37:51.657Z,4.53
2023-03-26T19:40:56.769Z,5.05
2023-03-26T19:44:01.922Z,6.85
2023-03-26T19:47:08.801Z,5.10
2023-03-26T19:50:24.804Z,4.22
2023-03-26T19:53:32.954Z,4.18
2023-03-26T19:56:35.593Z,5.07
2023-03-26T19:59:38.040Z,4.43
2023-03-26T20:02:42.871Z,3.83
2023-03-26T20:05:45.437Z,4.95
2023-03-26T20:08:50.503Z,6.03
2023-03-26T20:11:54.265Z,5.80
2023-03-26T20:14:56.849Z,6.50
2023-03-26T20:18:00.846Z,5.60
2023-03-26T20:21:03.429Z,5.47
2023-03-26T20:24:12.679Z,5.20
2023-03-26T20:27:16.166Z,3.90
2023-03-26T20:33:41.197Z,4.30
2023-03-26T20:36:43.924Z,3.97
2023-03-26T20:39:46.902Z,4.68
2023-03-26T20:42:49.408Z,4.05
2023-03-26T20:45:53.518Z,6.05
2023-03-26T20:48:57.599Z,6.20
2023-03-26T20:52:00.688Z,5.13
2023-03-26T20:55:03.972Z,5.80
2023-03-26T20:58:06.424Z,6.38
2023-03-26T21:01:10.764Z,6.97
2023-03-26T21:04:15.275Z,7.38
2023-03-26T21:07:18.728Z,6.75
2023-03-26T21:10:22.617Z,6.47
2023-03-26T21:13:35.074Z,6.82
2023-03-26T21:16:38.227Z,6.25
2023-03-26T21:19:42.947Z,7.05
2023-03-26T21:22:50.997Z,6.43
2023-03-26T21:26:02.758Z,5.03
2023-03-26T21:29:08.759Z,5.57
2023-03-26T21:32:12.202Z,6.03
2023-03-26T21:38:21.381Z,6.65
2023-03-26T21:41:36.019Z,6.18
2023-03-26T21:44:39.583Z,5.80
2023-03-26T21:47:42.932Z,5.32
2023-03-26T21:50:47.591Z,5.97
2023-03-26T21:53:50.683Z,5.32
2023-03-26T21:57:06.932Z,5.13
2023-03-26T22:00:15.496Z,4.82
2023-03-26T22:03:26.358Z,5.63
2023-03-26T22:06:37.778Z,4.47
2023-03-26T22:09:40.813Z,4.80
2023-03-26T22:12:45.528Z,4.65
2023-03-26T22:15:48.043Z,4.68
2023-03-26T22:18:50.661Z,5.20
2023-03-26T22:21:54.766Z,4.95
2023-03-26T22:24:57.234Z,4.57
2023-03-26T22:27:59.682Z,5.00
2023-03-26T22:31:07.354Z,3.60
2023-03-26T22:34:10.315Z,4.30
2023-03-26T22:37:14.586Z,3.13
2023-03-26T22:40:17.963Z,3.78
2023-03-26T22:43:20.489Z,3.65
2023-03-26T22:46:23.613Z,4.63
2023-03-26T22:49:27.414Z,4.78
2023-03-26T22:52:31.813Z,3.92
2023-03-26T22:55:34.433Z,3.45
2023-03-26T22:58:36.939Z,4.65
2023-03-26T23:01:39.996Z,3.72
2023-03-26T23:04:42.831Z,4.00
2023-03-26T23:07:47.338Z,3.97
2023-03-26T23:10:49.980Z,3.30
2023-03-26T23:13:52.533Z,3.08
2023-03-26T23:16:55.229Z,3.35
2023-03-26T23:19:57.676Z,2.55
2023-03-26T23:23:02.098Z,2.22
2023-03-26T23:26:06.743Z,3.25
2023-03-26T23:29:09.534Z,3.72
2023-03-26T23:32:23.581Z,3.05
2023-03-26T23:35:27.538Z,2.88
2023-03-26T23:38:43.640Z,2.97
2023-03-26T23:41:47.151Z,2.33
2023-03-26T23:44:49.593Z,3.22
2023-03-26T23:47:52.357Z,3.25
2023-03-26T23:51:02.967Z,2.38
2023-03-26T23:54:08.880Z,3.15
2023-03-26T23:57:11.928Z,1.73
